createdAt,value
2019-04-22T00:00:55.924Z,6.1
2019-04-22T00:03:01.342Z,6.1
2019-04-22T00:05:11.365Z,6.1
2019-04-22T00:07:21.976Z,5.8
2019-04-22T00:09:23.699Z,5.9
2019-04-22T00:11:28.651Z,6.2
2019-04-22T00:13:25.690Z,6.2
2019-04-22T00:15:15.075Z,6.3
2019-04-22T00:17:29.893Z,6.4
2019-04-22T00:21:25.346Z,5.9
2019-04-22T00:23:23.066Z,5.9
2019-04-22T00:25:26.076Z,5.9
2019-04-22T00:27:27.753Z,6.1
2019-04-22T00:29:42.207Z,6.2
2019-04-22T00:31:20.518Z,6.2
2019-04-22T00:33:20.275Z,6.3
2019-04-22T00:35:23.468Z,5.9
2019-04-22T00:37:16.588Z,5.6
2019-04-22T00:41:28.396Z,5.9
2019-04-22T00:43:24.065Z,5.8
2019-04-22T00:45:26.574Z,5.5
2019-04-22T00:47:27.730Z,5.3
2019-04-22T00:51:22.309Z,5.7
2019-04-22T00:53:22.322Z,5.8
2019-04-22T00:55:24.397Z,5.7
2019-04-22T00:57:21.041Z,5.7
2019-04-22T01:01:18.724Z,5.6
2019-04-22T01:03:19.316Z,5.6
2019-04-22T01:07:17.130Z,5.7
2019-04-22T01:09:23.160Z,5.7
2019-04-22T01:13:24.571Z,5.5
2019-04-22T01:23:23.361Z,5.3
2019-04-22T01:25:14.255Z,5.4
2019-04-22T01:27:15.839Z,5.6
2019-04-22T01:29:08.137Z,5.6
2019-04-22T01:31:07.374Z,5.6
2019-04-22T01:33:09.010Z,5.2
2019-04-22T01:35:08.218Z,5.2
2019-04-22T01:37:19.645Z,5.6
2019-04-22T01:39:19.862Z,5.6
2019-04-22T01:41:32.006Z,5.6
2019-04-22T01:43:16.328Z,5.6
2019-04-22T01:45:24.580Z,6.0
2019-04-22T01:47:24.427Z,5.4
2019-04-22T01:49:27.141Z,5.4
2019-04-22T01:51:28.100Z,5.4
2019-04-22T01:53:26.915Z,5.5
2019-04-22T01:55:17.305Z,5.8
2019-04-22T01:57:22.109Z,5.6
2019-04-22T01:59:19.573Z,5.6
2019-04-22T02:01:21.916Z,5.8
2019-04-22T02:03:25.408Z,5.7
2019-04-22T02:05:22.607Z,5.7
2019-04-22T02:13:28.621Z,5.8
2019-04-22T02:15:23.147Z,6.2
2019-04-22T02:17:31.369Z,6.1
2019-04-22T02:19:30.166Z,6.1
2019-04-22T02:21:13.480Z,6.3
2019-04-22T02:23:43.770Z,6.5
2019-04-22T02:27:31.926Z,6.4
2019-04-22T02:29:28.607Z,6.4
2019-04-22T02:31:35.501Z,5.9
2019-04-22T02:35:33.691Z,5.8
2019-04-22T02:37:18.437Z,6.1
2019-04-22T02:39:40.804Z,6.1
2019-04-22T02:41:30.422Z,6.0
2019-04-22T02:47:19.950Z,6.6
2019-04-22T02:54:00.327Z,7.0
2019-04-22T02:55:22.514Z,6.9
2019-04-22T02:59:30.684Z,7.2
2019-04-22T03:01:22.436Z,6.5
2019-04-22T03:03:40.335Z,6.7
2019-04-22T03:05:36.242Z,7.2
2019-04-22T03:07:31.538Z,7.2
2019-04-22T03:11:32.727Z,6.8
2019-04-22T03:13:37.441Z,6.8
2019-04-22T03:15:29.588Z,6.8
2019-04-22T03:17:28.413Z,7.1
2019-04-22T03:21:17.333Z,7.5
2019-04-22T03:23:45.034Z,6.7
2019-04-22T03:27:21.703Z,6.8
2019-04-22T03:29:17.526Z,6.8
2019-04-22T03:31:57.345Z,7.2
2019-04-22T03:33:39.726Z,6.6
2019-04-22T03:41:47.366Z,6.8
2019-04-22T03:43:23.055Z,6.8
2019-04-22T03:49:27.985Z,7.2
2019-04-22T03:53:20.705Z,6.8
2019-04-22T03:59:41.022Z,7.4
2019-04-22T04:01:29.391Z,6.9
2019-04-22T04:03:28.034Z,6.7
2019-04-22T04:05:37.133Z,6.7
2019-04-22T04:07:39.790Z,6.8
2019-04-22T04:09:31.946Z,7.3
2019-04-22T04:11:42.562Z,7.1
2019-04-22T04:13:16.649Z,7.1
2019-04-22T04:17:28.639Z,7.4
2019-04-22T04:19:22.911Z,7.7
2019-04-22T04:21:25.793Z,7.5
2019-04-22T04:23:34.941Z,7.5
2019-04-22T04:27:30.613Z,7.0
2019-04-22T04:29:44.985Z,6.7
2019-04-22T04:31:32.141Z,6.2
2019-04-22T04:33:22.654Z,6.2
2019-04-22T04:35:40.340Z,6.8
2019-04-22T04:37:44.387Z,6.7
2019-04-22T04:39:33.978Z,6.8
2019-04-22T04:41:33.476Z,7.1
2019-04-22T04:43:34.840Z,7.1
2019-04-22T04:47:40.701Z,6.7
2019-04-22T04:51:32.445Z,6.9
2019-04-22T04:53:20.098Z,7.1
2019-04-22T04:55:27.633Z,7.0
2019-04-22T04:57:33.343Z,7.4
2019-04-22T04:59:22.385Z,6.8
2019-04-22T05:01:29.778Z,7.6
2019-04-22T05:07:35.823Z,7.5
2019-04-22T05:09:23.652Z,7.2
2019-04-22T05:11:34.703Z,7.2
2019-04-22T05:13:38.985Z,7.2
2019-04-22T05:19:25.148Z,6.3
2019-04-22T05:21:21.345Z,6.3
2019-04-22T05:23:29.839Z,6.6
2019-04-22T05:25:22.053Z,6.6
2019-04-22T05:27:19.502Z,6.8
2019-04-22T05:29:26.534Z,6.8
2019-04-22T05:31:13.831Z,6.1
2019-04-22T05:45:24.606Z,6.8
2019-04-22T05:47:25.252Z,7.0
2019-04-22T05:49:23.322Z,7.0
2019-04-22T05:55:29.904Z,7.1
2019-04-22T05:57:23.177Z,7.1
2019-04-22T05:59:24.211Z,6.5
2019-04-22T06:03:20.416Z,6.1
2019-04-22T06:05:24.322Z,5.7
2019-04-22T06:07:26.073Z,5.8
2019-04-22T06:09:24.138Z,5.2
2019-04-22T06:11:25.455Z,5.2
2019-04-22T06:13:17.518Z,5.6
2019-04-22T06:15:23.208Z,5.6
2019-04-22T06:17:23.779Z,5.3
2019-04-22T06:19:13.339Z,5.4
2019-04-22T06:21:18.369Z,5.4
2019-04-22T06:23:25.396Z,5.4
2019-04-22T06:25:19.682Z,5.2
2019-04-22T06:27:27.596Z,5.4
2019-04-22T06:31:15.561Z,4.8
2019-04-22T06:35:29.422Z,5.0
2019-04-22T06:37:22.024Z,5.0
2019-04-22T06:39:27.661Z,5.0
2019-04-22T06:41:13.240Z,4.7
2019-04-22T06:43:21.566Z,5.0
2019-04-22T06:45:23.274Z,5.0
2019-04-22T06:47:39.444Z,5.0
2019-04-22T06:49:15.951Z,4.8
2019-04-22T06:53:23.547Z,4.6
2019-04-22T06:55:26.981Z,4.6
2019-04-22T06:57:25.067Z,4.5
2019-04-22T06:59:24.582Z,3.7
2019-04-22T07:01:35.343Z,3.6
2019-04-22T07:07:18.144Z,3.7
2019-04-22T07:09:28.043Z,3.7
2019-04-22T07:11:23.478Z,3.5
2019-04-22T07:15:41.865Z,3.3
2019-04-22T07:17:13.830Z,3.4
2019-04-22T07:19:27.460Z,3.2
2019-04-22T07:21:19.241Z,3.0
2019-04-22T07:23:26.913Z,3.0
2019-04-22T07:25:15.468Z,3.4
2019-04-22T07:27:20.458Z,3.3
2019-04-22T07:29:24.742Z,3.3
2019-04-22T07:31:15.456Z,3.5
2019-04-22T07:33:18.650Z,3.1
2019-04-22T07:35:28.356Z,3.1
2019-04-22T07:37:31.221Z,3.3
2019-04-22T07:39:15.384Z,3.2
2019-04-22T07:41:19.574Z,3.0
2019-04-22T07:43:19.445Z,3.3
2019-04-22T07:45:15.128Z,3.4
2019-04-22T07:47:18.249Z,3.4
2019-04-22T07:49:25.679Z,3.3
2019-04-22T07:51:12.834Z,3.2
2019-04-22T07:53:21.465Z,3.4
2019-04-22T07:55:16.190Z,3.4
2019-04-22T07:57:27.286Z,3.3
2019-04-22T07:59:21.841Z,3.1
2019-04-22T08:01:13.847Z,3.4
2019-04-22T08:03:26.535Z,3.4
2019-04-22T08:05:24.346Z,3.2
2019-04-22T08:07:23.632Z,3.7
2019-04-22T08:09:26.488Z,3.7
2019-04-22T08:11:36.925Z,3.2
2019-04-22T08:13:24.614Z,3.2
2019-04-22T08:15:26.499Z,3.8
2019-04-22T08:19:15.322Z,3.2
2019-04-22T08:21:21.806Z,3.3
2019-04-22T08:23:23.585Z,3.4
2019-04-22T08:25:16.263Z,3.4
2019-04-22T08:27:22.206Z,3.5
2019-04-22T08:29:25.005Z,3.5
2019-04-22T08:31:28.094Z,3.4
2019-04-22T08:33:28.693Z,3.4
2019-04-22T08:35:28.870Z,3.3
2019-04-22T08:37:47.214Z,3.3
2019-04-22T08:39:24.851Z,3.7
2019-04-22T08:41:27.116Z,3.6
2019-04-22T08:43:26.562Z,3.3
2019-04-22T08:45:14.090Z,3.3
2019-04-22T08:47:26.119Z,3.3
2019-04-22T08:49:21.526Z,3.2
2019-04-22T08:51:24.593Z,3.3
2019-04-22T08:53:23.286Z,3.3
2019-04-22T08:55:17.059Z,3.3
2019-04-22T08:57:34.414Z,3.8
2019-04-22T08:59:21.583Z,3.4
2019-04-22T09:01:17.032Z,3.2
2019-04-22T09:03:23.706Z,3.2
2019-04-22T09:05:41.523Z,3.2
2019-04-22T09:07:20.061Z,3.2
2019-04-22T09:09:26.313Z,3.5
2019-04-22T09:11:19.523Z,3.2
2019-04-22T09:15:25.977Z,3.5
2019-04-22T09:19:22.283Z,3.1
2019-04-22T09:21:18.238Z,3.3
2019-04-22T09:23:30.000Z,3.3
2019-04-22T09:29:26.618Z,3.4
2019-04-22T09:31:23.292Z,3.4
2019-04-22T09:33:26.977Z,3.4
2019-04-22T09:35:22.934Z,3.6
2019-04-22T09:37:26.656Z,3.1
2019-04-22T09:41:26.944Z,3.3
2019-04-22T09:43:16.689Z,3.3
2019-04-22T09:45:21.022Z,3.3
2019-04-22T09:47:24.751Z,3.3
2019-04-22T09:49:26.080Z,3.3
2019-04-22T09:51:24.788Z,3.1
2019-04-22T09:55:21.088Z,3.2
2019-04-22T09:57:24.287Z,3.1
2019-04-22T09:59:26.992Z,3.1
2019-04-22T10:03:19.412Z,3.1
2019-04-22T10:05:27.290Z,3.3
2019-04-22T10:07:25.542Z,3.3
2019-04-22T10:09:40.066Z,3.1
2019-04-22T10:11:20.893Z,3.1
2019-04-22T10:13:25.307Z,3.4
2019-04-22T10:15:24.689Z,3.1
2019-04-22T10:17:24.905Z,3.1
2019-04-22T10:19:22.737Z,2.9
2019-04-22T10:21:35.133Z,2.9
2019-04-22T10:23:24.197Z,2.9
2019-04-22T10:25:22.831Z,2.9
2019-04-22T10:27:20.146Z,2.9
2019-04-22T10:31:30.741Z,3.2
2019-04-22T10:35:02.995Z,2.9
2019-04-22T10:36:59.729Z,2.9
2019-04-22T10:38:50.767Z,2.9
2019-04-22T10:40:50.462Z,3.6
2019-04-22T10:42:51.658Z,2.8
2019-04-22T10:44:53.686Z,3.0
2019-04-22T10:46:50.134Z,3.0
2019-04-22T10:48:50.434Z,3.1
2019-04-22T10:50:50.765Z,2.9
2019-04-22T10:52:49.866Z,2.7
2019-04-22T10:54:50.005Z,2.7
2019-04-22T10:56:50.918Z,2.7
2019-04-22T10:58:50.896Z,2.7
2019-04-22T11:00:52.779Z,2.7
2019-04-22T11:02:49.979Z,2.8
2019-04-22T11:04:50.330Z,2.8
2019-04-22T11:07:00.928Z,2.6
2019-04-22T11:08:59.712Z,2.8
2019-04-22T11:11:10.326Z,2.5
2019-04-22T11:12:49.503Z,2.6
2019-04-22T11:14:51.833Z,2.6
2019-04-22T11:16:49.888Z,3.0
2019-04-22T11:18:51.784Z,3.0
2019-04-22T11:20:49.722Z,2.1
2019-04-22T11:22:51.121Z,2.6
2019-04-22T11:24:50.977Z,2.6
2019-04-22T11:26:49.806Z,2.6
2019-04-22T11:28:51.472Z,2.4
2019-04-22T11:30:50.364Z,2.7
2019-04-22T11:32:50.827Z,2.7
2019-04-22T11:34:51.330Z,2.7
2019-04-22T11:36:50.703Z,2.5
2019-04-22T11:39:01.443Z,2.5
2019-04-22T11:40:55.557Z,2.4
2019-04-22T11:42:50.435Z,2.5
2019-04-22T11:44:51.148Z,2.5
2019-04-22T11:46:51.752Z,2.3
2019-04-22T11:48:52.035Z,2.3
2019-04-22T11:50:49.987Z,2.4
2019-04-22T11:52:51.099Z,2.4
2019-04-22T11:54:50.818Z,2.6
2019-04-22T11:56:49.955Z,2.6
2019-04-22T11:58:51.044Z,2.2
2019-04-22T12:00:53.055Z,2.4
2019-04-22T12:02:51.305Z,2.4
2019-04-22T12:04:49.963Z,2.5
2019-04-22T12:06:49.966Z,2.4
2019-04-22T12:08:50.210Z,2.2
2019-04-22T12:10:58.140Z,2.3
2019-04-22T12:12:53.956Z,2.5
2019-04-22T12:14:50.204Z,2.6
2019-04-22T12:16:50.185Z,2.6
2019-04-22T12:18:51.382Z,2.3
2019-04-22T12:20:51.100Z,2.4
2019-04-22T12:22:51.503Z,2.4
2019-04-22T12:24:50.460Z,2.8
2019-04-22T12:26:50.805Z,2.6
2019-04-22T12:28:51.189Z,2.2
2019-04-22T12:30:51.393Z,2.5
2019-04-22T12:32:50.698Z,2.6
2019-04-22T12:34:51.426Z,2.6
2019-04-22T12:36:51.213Z,2.2
2019-04-22T12:38:51.585Z,2.2
2019-04-22T12:40:58.907Z,2.2
2019-04-22T12:42:51.538Z,2.3
2019-04-22T12:44:51.320Z,2.4
2019-04-22T12:46:50.425Z,2.4
2019-04-22T12:48:50.177Z,2.4
2019-04-22T12:50:54.277Z,4.1
2019-04-22T12:52:59.275Z,4.1
2019-04-22T12:54:51.198Z,2.4
2019-04-22T12:56:51.518Z,2.4
2019-04-22T12:58:50.017Z,2.3
2019-04-22T13:00:52.845Z,2.3
2019-04-22T13:02:49.530Z,2.3
2019-04-22T13:04:50.093Z,2.4
2019-04-22T13:06:50.213Z,2.6
2019-04-22T13:08:50.294Z,2.4
2019-04-22T13:11:04.532Z,2.2
2019-04-22T13:12:51.090Z,2.2
2019-04-22T13:14:50.854Z,2.2
2019-04-22T13:16:51.375Z,2.5
2019-04-22T13:18:59.911Z,2.6
2019-04-22T13:20:50.761Z,2.6
2019-04-22T13:22:50.748Z,2.3
2019-04-22T13:24:50.104Z,2.7
2019-04-22T13:26:50.858Z,2.3
2019-04-22T13:28:51.596Z,2.4
2019-04-22T13:30:50.686Z,2.4
2019-04-22T13:32:49.712Z,2.5
2019-04-22T13:34:57.840Z,2.3
2019-04-22T13:36:50.521Z,2.3
2019-04-22T13:38:51.368Z,2.1
2019-04-22T13:41:06.849Z,2.1
2019-04-22T13:42:51.267Z,2.0
2019-04-22T13:44:51.843Z,2.2
2019-04-22T13:47:14.093Z,2.2
2019-04-22T13:51:27.923Z,2.2
2019-04-22T13:55:23.680Z,2.6
2019-04-22T13:57:19.552Z,2.9
2019-04-22T13:59:08.703Z,3.1
2019-04-22T14:00:50.139Z,3.1
2019-04-22T14:02:50.847Z,2.7
2019-04-22T14:04:50.783Z,3.0
2019-04-22T14:06:49.605Z,3.0
2019-04-22T14:08:51.104Z,3.0
2019-04-22T14:10:50.412Z,2.9
2019-04-22T14:12:51.090Z,2.7
2019-04-22T14:14:52.950Z,2.6
2019-04-22T14:16:51.099Z,2.6
2019-04-22T14:18:51.556Z,2.6
2019-04-22T14:20:51.269Z,2.4
2019-04-22T14:22:50.587Z,2.4
2019-04-22T14:24:49.691Z,2.7
2019-04-22T14:27:14.884Z,2.7
2019-04-22T14:28:50.233Z,2.3
2019-04-22T14:30:50.746Z,2.3
2019-04-22T14:32:51.330Z,2.3
2019-04-22T14:34:51.343Z,2.3
2019-04-22T14:36:51.255Z,2.3
2019-04-22T14:38:50.333Z,2.3
2019-04-22T14:40:50.119Z,2.3
2019-04-22T14:43:19.071Z,2.2
2019-04-22T14:45:37.736Z,2.5
2019-04-22T14:47:12.710Z,2.4
2019-04-22T14:49:23.703Z,2.4
2019-04-22T14:51:15.874Z,2.4
2019-04-22T14:53:20.568Z,2.6
2019-04-22T14:55:07.488Z,2.5
2019-04-22T14:56:49.542Z,2.5
2019-04-22T14:58:50.956Z,2.5
2019-04-22T15:00:53.344Z,2.2
2019-04-22T15:02:50.020Z,2.3
2019-04-22T15:04:50.429Z,2.6
2019-04-22T15:06:50.560Z,2.6
2019-04-22T15:08:53.893Z,2.3
2019-04-22T15:10:51.867Z,2.2
2019-04-22T15:12:56.952Z,2.3
2019-04-22T15:14:51.249Z,2.3
2019-04-22T15:16:51.138Z,2.3
2019-04-22T15:18:51.733Z,2.6
2019-04-22T15:20:54.170Z,2.0
2019-04-22T15:22:50.799Z,2.3
2019-04-22T15:24:50.387Z,2.2
2019-04-22T15:26:50.916Z,2.2
2019-04-22T15:28:49.570Z,2.6
2019-04-22T15:30:51.373Z,2.8
2019-04-22T15:32:51.489Z,2.4
2019-04-22T15:34:51.307Z,2.3
2019-04-22T15:36:50.706Z,2.3
2019-04-22T15:38:51.414Z,2.6
2019-04-22T15:40:50.207Z,2.5
2019-04-22T15:42:50.901Z,2.5
2019-04-22T15:44:49.680Z,2.5
2019-04-22T15:46:51.119Z,2.5
2019-04-22T15:48:51.938Z,2.3
2019-04-22T15:50:50.858Z,2.4
2019-04-22T15:52:56.703Z,2.4
2019-04-22T15:54:53.932Z,2.5
2019-04-22T15:56:50.912Z,2.5
2019-04-22T15:58:49.566Z,2.3
2019-04-22T16:01:08.674Z,2.6
2019-04-22T16:02:50.023Z,2.6
2019-04-22T16:04:50.700Z,2.4
2019-04-22T16:06:49.945Z,2.4
2019-04-22T16:08:50.033Z,2.5
2019-04-22T16:10:51.803Z,2.4
2019-04-22T16:13:05.308Z,2.4
2019-04-22T16:14:56.805Z,2.7
2019-04-22T16:16:50.657Z,2.7
2019-04-22T16:18:50.792Z,2.6
2019-04-22T16:20:50.506Z,2.5
2019-04-22T16:22:51.660Z,2.8
2019-04-22T16:24:50.351Z,2.8
2019-04-22T16:26:51.970Z,2.7
2019-04-22T16:28:56.226Z,2.7
2019-04-22T16:30:51.235Z,2.6
2019-04-22T16:32:51.814Z,2.6
2019-04-22T16:34:50.247Z,2.7
2019-04-22T16:36:49.563Z,2.8
2019-04-22T16:38:51.012Z,3.0
2019-04-22T16:40:50.641Z,2.9
2019-04-22T16:43:00.585Z,2.9
2019-04-22T16:44:51.389Z,3.0
2019-04-22T16:46:50.180Z,3.0
2019-04-22T16:48:49.845Z,3.0
2019-04-22T16:50:53.069Z,3.2
2019-04-22T16:52:50.277Z,3.2
2019-04-22T16:54:50.909Z,2.9
2019-04-22T16:56:50.235Z,2.7
2019-04-22T16:58:50.937Z,2.8
2019-04-22T17:00:50.068Z,2.8
2019-04-22T17:02:53.831Z,2.7
2019-04-22T17:04:51.094Z,2.7
2019-04-22T17:06:50.317Z,2.8
2019-04-22T17:08:51.054Z,2.8
2019-04-22T17:10:49.684Z,2.9
2019-04-22T17:13:03.487Z,2.9
2019-04-22T17:15:02.028Z,2.9
2019-04-22T17:16:50.795Z,2.8
2019-04-22T17:18:50.222Z,2.9
2019-04-22T17:20:50.941Z,2.9
2019-04-22T17:22:51.749Z,3.3
2019-04-22T17:24:50.308Z,3.3
2019-04-22T17:26:50.759Z,2.8
2019-04-22T17:28:51.486Z,2.8
2019-04-22T17:30:52.077Z,2.8
2019-04-22T17:32:50.569Z,2.8
2019-04-22T17:34:49.918Z,2.8
2019-04-22T17:36:51.210Z,2.8
2019-04-22T17:39:12.787Z,2.8
2019-04-22T17:41:07.572Z,2.8
2019-04-22T17:43:29.695Z,2.9
2019-04-22T17:45:21.818Z,3.0
2019-04-22T17:47:16.161Z,2.6
2019-04-22T17:49:20.408Z,2.6
2019-04-22T17:55:16.361Z,2.8
2019-04-22T17:57:15.138Z,2.7
2019-04-22T17:59:20.188Z,2.7
2019-04-22T18:01:14.542Z,3.0
2019-04-22T18:03:12.596Z,2.9
2019-04-22T18:05:03.445Z,2.9
2019-04-22T18:07:22.996Z,2.9
2019-04-22T18:09:17.037Z,3.0
2019-04-22T18:11:28.446Z,3.0
2019-04-22T18:13:24.937Z,3.4
2019-04-22T18:15:17.386Z,3.2
2019-04-22T18:17:23.281Z,3.4
2019-04-22T18:19:19.162Z,3.4
2019-04-22T18:21:12.972Z,3.4
2019-04-22T18:23:06.394Z,3.4
2019-04-22T18:25:11.112Z,3.5
2019-04-22T18:27:34.106Z,3.5
2019-04-22T18:29:21.760Z,3.7
2019-04-22T18:31:15.235Z,3.7
2019-04-22T18:33:17.850Z,4.4
2019-04-22T18:35:20.038Z,4.8
2019-04-22T18:37:16.284Z,4.8
2019-04-22T18:39:22.115Z,5.1
2019-04-22T18:41:12.356Z,5.1
2019-04-22T18:43:21.260Z,5.6
2019-04-22T18:45:35.043Z,5.4
2019-04-22T18:47:14.340Z,5.4
2019-04-22T18:49:14.879Z,5.5
2019-04-22T18:51:24.303Z,5.5
2019-04-22T18:53:15.829Z,5.4
2019-04-22T18:55:16.197Z,5.3
2019-04-22T18:57:14.993Z,5.3
2019-04-22T18:59:10.386Z,5.5
2019-04-22T19:00:54.528Z,5.7
2019-04-22T19:03:01.875Z,5.9
2019-04-22T19:05:07.579Z,5.5
2019-04-22T19:07:23.408Z,5.5
2019-04-22T19:11:10.944Z,5.6
2019-04-22T19:13:49.563Z,5.2
2019-04-22T19:15:24.213Z,5.2
2019-04-22T19:17:24.772Z,4.6
2019-04-22T19:19:29.628Z,5.5
2019-04-22T19:21:12.023Z,4.5
2019-04-22T19:23:22.513Z,4.6
2019-04-22T19:27:20.000Z,4.4
2019-04-22T19:31:24.357Z,4.6
2019-04-22T19:35:16.997Z,4.3
2019-04-22T19:37:16.874Z,4.3
2019-04-22T19:39:15.743Z,3.9
2019-04-22T19:43:15.234Z,3.2
2019-04-22T19:45:15.416Z,3.2
2019-04-22T19:51:15.506Z,2.7
2019-04-22T19:53:22.493Z,3.0
2019-04-22T19:57:22.149Z,3.1
2019-04-22T19:59:11.683Z,3.1
2019-04-22T20:01:12.612Z,2.8
2019-04-22T20:03:28.668Z,2.8
2019-04-22T20:05:25.546Z,2.7
2019-04-22T20:07:12.328Z,2.7
2019-04-22T20:09:23.512Z,2.5
2019-04-22T20:11:22.523Z,3.4
2019-04-22T20:13:23.975Z,3.4
2019-04-22T20:15:18.112Z,2.8
2019-04-22T20:17:23.798Z,2.5
2019-04-22T20:19:24.697Z,2.6
2019-04-22T20:21:22.076Z,2.8
2019-04-22T20:23:14.127Z,2.7
2019-04-22T20:25:07.367Z,2.7
2019-04-22T20:27:13.496Z,2.7
2019-04-22T20:29:25.322Z,2.7
2019-04-22T20:31:18.345Z,2.7
2019-04-22T20:33:25.600Z,2.7
2019-04-22T20:35:20.665Z,2.7
2019-04-22T20:37:22.132Z,2.7
2019-04-22T20:39:10.377Z,2.7
2019-04-22T20:41:15.632Z,2.7
2019-04-22T20:43:14.764Z,2.6
2019-04-22T20:45:20.861Z,2.7
2019-04-22T20:47:13.380Z,2.8
2019-04-22T20:51:13.788Z,3.0
2019-04-22T20:53:23.890Z,3.0
2019-04-22T20:55:16.073Z,2.7
2019-04-22T20:57:09.095Z,3.1
2019-04-22T20:59:17.650Z,3.0
2019-04-22T21:01:10.110Z,3.0
2019-04-22T21:03:13.097Z,3.4
2019-04-22T21:05:05.996Z,3.4
2019-04-22T21:07:13.346Z,3.6
2019-04-22T21:09:21.929Z,3.4
2019-04-22T21:11:18.915Z,3.2
2019-04-22T21:13:16.349Z,3.2
2019-04-22T21:15:26.091Z,3.2
2019-04-22T21:17:16.938Z,3.3
2019-04-22T21:21:18.086Z,3.2
2019-04-22T21:23:16.084Z,3.2
2019-04-22T21:25:12.313Z,3.5
2019-04-22T21:27:20.250Z,3.8
2019-04-22T21:29:15.758Z,3.6
2019-04-22T21:31:23.140Z,3.8
2019-04-22T21:33:10.418Z,3.8
2019-04-22T21:35:25.851Z,4.1
2019-04-22T21:37:13.679Z,3.7
2019-04-22T21:39:17.325Z,3.7
2019-04-22T21:41:15.648Z,3.8
2019-04-22T21:43:23.565Z,3.9
2019-04-22T21:45:07.032Z,3.9
2019-04-22T21:47:20.317Z,4.0
2019-04-22T21:51:24.133Z,3.9
2019-04-22T21:53:14.043Z,4.1
2019-04-22T21:55:22.440Z,4.4
2019-04-22T21:57:23.879Z,4.2
2019-04-22T21:59:11.979Z,4.2
2019-04-22T22:01:26.475Z,4.7
2019-04-22T22:03:23.213Z,4.7
2019-04-22T22:05:15.188Z,4.1
2019-04-22T22:07:07.343Z,4.1
2019-04-22T22:09:15.064Z,4.2
2019-04-22T22:11:18.360Z,4.4
2019-04-22T22:13:21.559Z,4.5
2019-04-22T22:15:18.429Z,4.5
2019-04-22T22:17:16.940Z,4.6
2019-04-22T22:23:25.028Z,4.7
2019-04-22T22:25:19.600Z,4.5
2019-04-22T22:27:18.357Z,4.5
2019-04-22T22:29:28.102Z,4.7
2019-04-22T22:31:14.537Z,4.7
2019-04-22T22:33:22.862Z,4.9
2019-04-22T22:35:20.309Z,5.3
2019-04-22T22:37:08.366Z,5.3
2019-04-22T22:39:13.726Z,5.0
2019-04-22T22:40:51.890Z,5.0
2019-04-22T22:42:55.400Z,5.1
2019-04-22T22:45:10.471Z,5.4
2019-04-22T22:47:17.916Z,5.1
2019-04-22T22:49:22.711Z,5.1
2019-04-22T22:51:23.944Z,5.5
2019-04-22T22:53:28.481Z,5.6
2019-04-22T22:55:21.577Z,5.5
2019-04-22T22:57:27.302Z,5.6
2019-04-22T22:59:23.391Z,5.6
2019-04-22T23:01:12.405Z,5.2
2019-04-22T23:03:39.748Z,5.5
2019-04-22T23:05:23.563Z,5.3
2019-04-22T23:07:17.044Z,5.4
2019-04-22T23:09:18.650Z,5.4
2019-04-22T23:11:20.394Z,5.8
2019-04-22T23:15:20.186Z,5.0
2019-04-22T23:17:03.643Z,5.0
2019-04-22T23:18:50.191Z,5.8
2019-04-22T23:20:53.985Z,5.5
2019-04-22T23:23:20.010Z,5.6
2019-04-22T23:25:22.165Z,5.7
2019-04-22T23:27:15.481Z,5.7
2019-04-22T23:29:10.002Z,5.3
2019-04-22T23:33:09.678Z,5.5
2019-04-22T23:35:13.177Z,5.5
2019-04-22T23:37:08.286Z,5.7
2019-04-22T23:39:15.351Z,5.7
2019-04-22T23:43:19.144Z,5.4
2019-04-22T23:45:20.922Z,5.3
2019-04-22T23:47:10.677Z,5.7
2019-04-22T23:49:11.555Z,5.7
2019-04-22T23:53:15.773Z,5.8
2019-04-22T23:55:14.197Z,5.4
2019-04-22T23:57:12.058Z,5.4
2019-04-22T23:59:21.147Z,5.4
